createdAt,value
2017-11-23T00:01:42.618Z,99641.59
2017-11-23T00:04:10.098Z,99637.03
2017-11-23T00:06:37.698Z,99635.91
2017-11-23T00:09:05.189Z,99632.95
2017-11-23T00:11:32.774Z,99638.50
2017-11-23T00:14:00.356Z,99644.72
2017-11-23T00:16:28.105Z,99639.56
2017-11-23T00:18:55.610Z,99636.42
2017-11-23T00:21:23.167Z,99641.23
2017-11-23T00:23:50.954Z,99633.29
2017-11-23T00:26:18.496Z,99632.88
2017-11-23T00:28:45.947Z,99625.41
2017-11-23T00:31:13.779Z,99625.28
2017-11-23T00:33:41.317Z,99621.98
2017-11-23T00:36:08.821Z,99619.52
2017-11-23T00:38:36.410Z,99618.23
2017-11-23T00:41:04.077Z,99616.30
2017-11-23T00:43:31.561Z,99613.66
2017-11-23T00:45:59.368Z,99608.73
2017-11-23T00:48:26.871Z,99618.17
2017-11-23T00:50:54.733Z,99603.59
2017-11-23T00:53:22.655Z,99605.28
2017-11-23T00:55:50.218Z,99601.58
2017-11-23T00:58:18.020Z,99594.93
2017-11-23T01:00:46.672Z,99590.55
2017-11-23T01:03:14.670Z,99589.92
2017-11-23T01:05:42.193Z,99594.30
2017-11-23T01:08:09.708Z,99584.00
2017-11-23T01:10:37.188Z,99584.86
2017-11-23T01:13:04.684Z,99582.92
2017-11-23T01:15:32.220Z,99578.14
2017-11-23T01:17:59.664Z,99576.30
2017-11-23T01:20:27.106Z,99582.14
2017-11-23T01:22:54.679Z,99581.69
2017-11-23T01:25:22.147Z,99578.70
2017-11-23T01:27:49.648Z,99578.30
2017-11-23T01:30:17.121Z,99584.45
2017-11-23T01:32:44.562Z,99580.52
2017-11-23T01:35:12.065Z,99579.08
2017-11-23T01:37:39.523Z,99578.53
2017-11-23T01:40:06.980Z,99582.19
2017-11-23T01:42:34.595Z,99577.00
2017-11-23T01:45:02.079Z,99584.05
2017-11-23T01:47:29.610Z,99584.60
2017-11-23T01:49:57.064Z,99583.82
2017-11-23T01:52:24.577Z,99578.03
2017-11-23T01:54:52.261Z,99568.28
2017-11-23T01:57:19.798Z,99568.59
2017-11-23T01:59:47.279Z,99561.09
2017-11-23T02:02:15.142Z,99550.25
2017-11-23T02:04:42.628Z,99549.47
2017-11-23T02:07:10.086Z,99547.37
2017-11-23T02:09:37.579Z,99546.48
2017-11-23T02:12:05.055Z,99539.89
2017-11-23T02:14:32.498Z,99543.60
2017-11-23T02:17:00.015Z,99553.92
2017-11-23T02:19:27.472Z,99544.15
2017-11-23T02:21:55.033Z,99545.73
2017-11-23T02:24:22.510Z,99545.47
2017-11-23T02:26:50.266Z,99539.95
2017-11-23T02:29:17.717Z,99533.88
2017-11-23T02:31:45.207Z,99541.55
2017-11-23T02:34:12.681Z,99547.77
2017-11-23T02:36:40.138Z,99558.89
2017-11-23T02:39:07.611Z,99547.80
2017-11-23T02:41:35.153Z,99541.20
2017-11-23T02:44:02.619Z,99545.44
2017-11-23T02:46:30.112Z,99546.61
2017-11-23T02:48:57.574Z,99542.09
2017-11-23T02:51:25.836Z,99541.58
2017-11-23T02:53:53.265Z,99538.25
2017-11-23T02:56:20.717Z,99531.48
2017-11-23T02:58:48.182Z,99522.11
2017-11-23T03:01:15.761Z,99504.00
2017-11-23T03:03:43.193Z,99498.66
2017-11-23T03:06:10.625Z,99493.99
2017-11-23T03:08:38.203Z,99493.97
2017-11-23T03:11:05.652Z,99496.14
2017-11-23T03:13:33.116Z,99498.80
2017-11-23T03:16:00.576Z,99500.89
2017-11-23T03:18:28.830Z,99500.92
2017-11-23T03:20:56.261Z,99494.05
2017-11-23T03:23:23.696Z,99479.67
2017-11-23T03:25:52.049Z,99485.48
2017-11-23T03:28:19.486Z,99491.80
2017-11-23T03:30:48.364Z,99492.98
2017-11-23T03:33:16.826Z,99500.78
2017-11-23T03:35:44.324Z,99501.18
2017-11-23T03:38:11.818Z,99500.52
2017-11-23T03:40:40.223Z,99510.88
2017-11-23T03:43:07.674Z,99509.12
2017-11-23T03:45:35.230Z,99501.95
2017-11-23T03:48:02.809Z,99497.98
2017-11-23T03:50:30.271Z,99507.66
2017-11-23T03:52:57.750Z,99506.96
2017-11-23T03:55:25.184Z,99501.89
2017-11-23T03:57:52.625Z,99501.27
2017-11-23T04:00:20.153Z,99496.86
2017-11-23T04:02:57.294Z,99501.87
2017-11-23T04:05:24.791Z,99502.75
2017-11-23T04:07:53.502Z,99504.70
2017-11-23T04:10:21.165Z,99504.70
2017-11-23T04:12:48.648Z,99511.03
2017-11-23T04:15:16.079Z,99501.74
2017-11-23T04:17:44.502Z,99505.05
2017-11-23T04:20:11.995Z,99509.66
2017-11-23T04:22:39.417Z,99506.26
2017-11-23T04:25:07.901Z,99508.13
2017-11-23T04:27:36.273Z,99510.41
2017-11-23T04:30:03.717Z,99496.91
2017-11-23T04:32:31.215Z,99500.00
2017-11-23T04:34:58.696Z,99503.56
2017-11-23T04:37:26.153Z,99493.63
2017-11-23T04:39:54.885Z,99497.84
2017-11-23T04:42:22.562Z,99494.16
2017-11-23T04:44:50.811Z,99492.02
2017-11-23T04:47:18.304Z,99494.98
2017-11-23T04:49:45.764Z,99493.66
2017-11-23T04:52:13.294Z,99495.66
2017-11-23T04:54:40.850Z,99491.39
2017-11-23T04:57:08.333Z,99496.69
2017-11-23T04:59:35.805Z,99501.43
2017-11-23T05:02:04.604Z,99499.19
2017-11-23T05:04:33.356Z,99502.17
2017-11-23T05:07:00.833Z,99499.70
2017-11-23T05:09:28.534Z,99508.22
2017-11-23T05:11:56.113Z,99501.89
2017-11-23T05:14:23.721Z,99502.47
2017-11-23T05:16:51.153Z,99502.07
2017-11-23T05:19:19.006Z,99508.86
2017-11-23T05:21:46.550Z,99507.08
2017-11-23T05:24:14.045Z,99504.14
2017-11-23T05:26:41.477Z,99511.19
2017-11-23T05:29:09.555Z,99509.47
2017-11-23T05:31:39.043Z,99503.52
2017-11-23T05:34:07.082Z,99507.77
2017-11-23T05:36:36.649Z,99507.77
2017-11-23T05:39:04.818Z,99505.76
2017-11-23T05:41:32.257Z,99512.59
2017-11-23T05:43:59.740Z,99506.27
2017-11-23T05:46:27.196Z,99504.55
2017-11-23T05:48:54.925Z,99499.11
2017-11-23T05:51:22.625Z,99500.14
2017-11-23T05:53:50.104Z,99506.84
2017-11-23T05:56:17.925Z,99507.91
2017-11-23T05:58:45.423Z,99499.05
2017-11-23T06:01:12.899Z,99501.64
2017-11-23T06:03:40.413Z,99510.84
2017-11-23T06:06:07.870Z,99508.80
2017-11-23T06:08:35.330Z,99508.36
2017-11-23T06:11:02.825Z,99512.70
2017-11-23T06:13:30.330Z,99511.17
2017-11-23T06:15:58.506Z,99507.97
2017-11-23T06:18:26.013Z,99519.85
2017-11-23T06:20:54.233Z,99523.94
2017-11-23T06:23:21.802Z,99528.05
2017-11-23T06:25:49.266Z,99535.19
2017-11-23T06:28:16.899Z,99531.96
2017-11-23T06:30:44.378Z,99522.61
2017-11-23T06:33:11.862Z,99523.16
2017-11-23T06:35:39.323Z,99525.81
2017-11-23T06:38:06.786Z,99529.78
2017-11-23T06:40:34.429Z,99531.80
2017-11-23T06:43:01.969Z,99534.81
2017-11-23T06:45:29.525Z,99529.67
2017-11-23T06:47:57.145Z,99519.91
2017-11-23T06:50:24.638Z,99516.34
2017-11-23T06:52:52.287Z,99511.60
2017-11-23T06:55:20.733Z,99526.42
2017-11-23T06:57:48.287Z,99514.59
2017-11-23T07:00:15.990Z,99516.06
2017-11-23T07:02:49.711Z,99525.17
2017-11-23T07:05:17.421Z,99520.28
2017-11-23T07:07:46.067Z,99523.56
2017-11-23T07:10:13.659Z,99516.54
2017-11-23T07:15:47.842Z,99513.05
2017-11-23T07:18:15.312Z,99524.64
2017-11-23T07:20:42.820Z,99519.20
2017-11-23T07:23:10.765Z,99508.32
2017-11-23T07:25:38.315Z,99513.07
2017-11-23T07:28:05.784Z,99510.53
2017-11-23T07:30:33.363Z,99507.56
2017-11-23T07:33:00.901Z,99502.67
2017-11-23T07:35:28.676Z,99504.88
2017-11-23T07:37:56.405Z,99520.70
2017-11-23T07:40:23.873Z,99515.52
2017-11-23T07:42:51.609Z,99500.91
2017-11-23T07:45:19.636Z,99518.24
2017-11-23T07:47:47.173Z,99514.09
2017-11-23T07:50:14.889Z,99511.80
2017-11-23T07:52:42.439Z,99510.95
2017-11-23T07:55:10.934Z,99512.64
2017-11-23T07:57:38.500Z,99511.98
2017-11-23T08:00:06.181Z,99505.95
2017-11-23T08:02:33.848Z,99513.71
2017-11-23T08:05:01.440Z,99527.11
2017-11-23T08:07:29.109Z,99523.91
2017-11-23T08:09:56.803Z,99535.61
2017-11-23T08:12:24.422Z,99539.47
2017-11-23T08:14:52.107Z,99539.17
2017-11-23T08:17:19.595Z,99545.80
2017-11-23T08:19:47.176Z,99554.63
2017-11-23T08:22:20.490Z,99536.08
2017-11-23T08:24:49.154Z,99547.67
2017-11-23T08:27:16.722Z,99550.28
2017-11-23T08:29:44.356Z,99548.25
2017-11-23T08:32:11.821Z,99552.97
2017-11-23T08:34:39.345Z,99553.66
2017-11-23T08:37:06.887Z,99545.91
2017-11-23T08:39:34.433Z,99551.58
2017-11-23T08:42:02.027Z,99559.09
2017-11-23T08:44:31.140Z,99560.73
2017-11-23T08:46:58.900Z,99568.39
2017-11-23T08:49:26.630Z,99561.31
2017-11-23T08:51:54.427Z,99568.45
2017-11-23T08:54:22.258Z,99570.92
2017-11-23T08:56:51.746Z,99572.98
2017-11-23T08:59:19.386Z,99571.56
2017-11-23T09:01:47.087Z,99562.79
2017-11-23T09:04:15.020Z,99564.58
2017-11-23T09:06:43.846Z,99548.17
2017-11-23T09:09:14.323Z,99546.03
2017-11-23T09:11:41.894Z,99539.36
2017-11-23T09:14:09.455Z,99539.41
2017-11-23T09:16:37.934Z,99530.98
2017-11-23T09:19:06.229Z,99539.42
2017-11-23T09:21:34.049Z,99528.91
2017-11-23T09:24:01.584Z,99533.39
2017-11-23T09:26:29.227Z,99534.85
2017-11-23T09:28:57.810Z,99539.23
2017-11-23T09:31:35.010Z,99536.78
2017-11-23T09:34:02.611Z,99530.35
2017-11-23T09:36:30.142Z,99536.23
2017-11-23T09:38:57.629Z,99532.00
2017-11-23T09:41:34.883Z,99542.83
2017-11-23T09:44:02.400Z,99541.50
2017-11-23T09:46:30.026Z,99542.13
2017-11-23T09:48:58.082Z,99537.31
2017-11-23T09:51:30.786Z,99533.49
2017-11-23T09:53:58.380Z,99535.63
2017-11-23T09:56:25.897Z,99529.89
2017-11-23T09:58:53.491Z,99522.59
2017-11-23T10:01:21.096Z,99525.29
2017-11-23T10:03:48.555Z,99528.48
2017-11-23T10:06:17.096Z,99517.44
2017-11-23T10:08:44.694Z,99525.30
2017-11-23T10:11:12.244Z,99508.80
2017-11-23T10:13:40.423Z,99511.65
2017-11-23T10:16:07.960Z,99512.55
2017-11-23T10:18:35.472Z,99512.99
2017-11-23T10:21:02.998Z,99513.98
2017-11-23T10:23:30.562Z,99513.68
2017-11-23T10:25:58.074Z,99515.44
2017-11-23T10:28:25.706Z,99523.23
2017-11-23T10:30:53.199Z,99506.56
2017-11-23T10:33:20.688Z,99504.62
2017-11-23T10:35:48.315Z,99498.95
2017-11-23T10:38:15.914Z,99498.89
2017-11-23T10:40:43.410Z,99494.83
2017-11-23T10:43:10.893Z,99496.95
2017-11-23T10:45:38.344Z,99494.42
2017-11-23T10:48:05.801Z,99494.75
2017-11-23T10:50:33.343Z,99485.98
2017-11-23T10:53:00.828Z,99481.02
2017-11-23T10:55:28.337Z,99475.08
2017-11-23T10:57:56.186Z,99481.52
2017-11-23T11:00:23.892Z,99476.05
2017-11-23T11:02:51.363Z,99467.68
2017-11-23T11:05:18.814Z,99469.50
2017-11-23T11:07:47.346Z,99481.27
2017-11-23T11:10:14.831Z,99482.67
2017-11-23T11:12:42.402Z,99490.46
2017-11-23T11:15:09.962Z,99479.58
2017-11-23T11:17:37.466Z,99478.69
2017-11-23T11:20:04.978Z,99479.30
2017-11-23T11:22:32.650Z,99478.20
2017-11-23T11:25:00.347Z,99475.84
2017-11-23T11:27:28.136Z,99478.13
2017-11-23T11:29:55.631Z,99474.61
2017-11-23T11:35:30.314Z,99471.39
2017-11-23T11:37:58.046Z,99478.30
2017-11-23T11:40:25.507Z,99468.56
2017-11-23T11:42:53.053Z,99467.07
2017-11-23T11:45:20.535Z,99464.16
2017-11-23T11:47:47.987Z,99460.80
2017-11-23T11:50:15.530Z,99465.03
2017-11-23T11:52:43.031Z,99470.83
2017-11-23T11:55:10.543Z,99469.03
2017-11-23T11:57:38.164Z,99464.40
2017-11-23T12:00:05.673Z,99457.47
2017-11-23T12:02:33.210Z,99465.81
2017-11-23T12:05:00.741Z,99469.80
2017-11-23T12:07:28.207Z,99462.34
2017-11-23T12:09:55.714Z,99455.33
2017-11-23T12:12:23.189Z,99450.02
2017-11-23T12:15:02.611Z,99454.25
2017-11-23T12:20:21.337Z,99443.41
2017-11-23T12:23:18.579Z,99438.23
2017-11-23T12:25:57.967Z,99436.41
2017-11-23T12:28:37.311Z,99429.28
2017-11-23T12:31:04.859Z,99432.81
2017-11-23T12:33:32.519Z,99435.31
2017-11-23T12:36:00.050Z,99421.87
2017-11-23T12:38:27.678Z,99430.20
2017-11-23T12:40:55.280Z,99415.88
2017-11-23T12:43:22.795Z,99430.05
2017-11-23T12:45:50.271Z,99444.44
2017-11-23T12:48:17.784Z,99448.05
2017-11-23T12:50:45.289Z,99450.95
2017-11-23T12:53:13.738Z,99466.58
2017-11-23T12:55:42.056Z,99466.81
2017-11-23T12:58:09.627Z,99474.64
2017-11-23T13:00:37.154Z,99463.80
2017-11-23T13:03:04.698Z,99457.39
2017-11-23T13:05:32.207Z,99458.52
2017-11-23T13:07:59.711Z,99461.92
2017-11-23T13:10:27.168Z,99469.42
2017-11-23T13:12:54.639Z,99463.60
2017-11-23T13:15:22.154Z,99459.39
2017-11-23T13:17:50.550Z,99462.86
2017-11-23T13:20:18.091Z,99464.88
2017-11-23T13:22:45.583Z,99462.30
2017-11-23T13:25:13.030Z,99458.85
2017-11-23T13:27:40.501Z,99447.05
2017-11-23T13:30:08.255Z,99431.09
2017-11-23T13:32:35.756Z,99443.00
2017-11-23T13:35:03.335Z,99432.45
2017-11-23T13:37:31.313Z,99438.66
2017-11-23T13:39:58.823Z,99441.08
2017-11-23T13:45:19.281Z,99450.15
2017-11-23T13:47:47.269Z,99441.76
2017-11-23T13:50:14.734Z,99442.86
2017-11-23T13:52:42.193Z,99445.77
2017-11-23T13:55:14.492Z,99460.72
2017-11-23T13:57:45.692Z,99460.41
2017-11-23T14:00:13.311Z,99466.89
2017-11-23T14:02:40.769Z,99475.84
2017-11-23T14:05:08.337Z,99488.27
2017-11-23T14:07:35.864Z,99487.39
2017-11-23T14:10:03.344Z,99502.06
2017-11-23T14:12:35.943Z,99497.16
2017-11-23T14:15:03.408Z,99493.14
2017-11-23T14:17:30.880Z,99491.09
2017-11-23T14:19:58.459Z,99483.88
2017-11-23T14:22:25.958Z,99480.73
2017-11-23T14:24:53.446Z,99473.42
2017-11-23T14:27:20.950Z,99483.17
2017-11-23T14:29:48.765Z,99490.43
2017-11-23T14:32:16.356Z,99509.82
2017-11-23T14:34:43.837Z,99512.13
2017-11-23T14:37:11.375Z,99510.33
2017-11-23T14:39:38.936Z,99511.91
2017-11-23T14:42:06.555Z,99511.59
2017-11-23T14:44:34.120Z,99522.69
2017-11-23T14:47:01.603Z,99532.44
2017-11-23T14:49:29.142Z,99545.10
2017-11-23T14:55:08.584Z,99540.30
2017-11-23T14:57:36.081Z,99557.73
2017-11-23T15:00:03.644Z,99565.43
2017-11-23T15:05:23.875Z,99595.20
2017-11-23T15:07:51.395Z,99588.44
2017-11-23T15:10:19.000Z,99602.03
2017-11-23T15:12:46.468Z,99603.73
2017-11-23T15:15:14.022Z,99603.89
2017-11-23T15:17:41.509Z,99609.87
2017-11-23T15:20:09.126Z,99607.12
2017-11-23T15:22:36.769Z,99606.88
2017-11-23T15:25:04.498Z,99605.33
2017-11-23T15:27:32.050Z,99605.63
2017-11-23T15:29:59.554Z,99609.01
2017-11-23T15:32:27.022Z,99615.92
2017-11-23T15:34:54.494Z,99608.29
2017-11-23T15:37:21.967Z,99607.34
2017-11-23T15:39:49.439Z,99602.66
2017-11-23T15:42:17.388Z,99605.08
2017-11-23T15:44:44.975Z,99603.42
2017-11-23T15:47:12.982Z,99602.89
2017-11-23T15:49:40.500Z,99594.00
2017-11-23T15:52:08.177Z,99597.56
2017-11-23T15:54:36.030Z,99594.73
2017-11-23T15:57:03.529Z,99591.58
2017-11-23T15:59:30.985Z,99591.09
2017-11-23T16:02:03.411Z,99588.30
2017-11-23T16:04:30.897Z,99589.16
2017-11-23T16:06:58.418Z,99594.23
2017-11-23T16:09:26.364Z,99595.04
2017-11-23T16:11:53.835Z,99595.03
2017-11-23T16:14:21.603Z,99605.94
2017-11-23T16:16:49.120Z,99606.70
2017-11-23T16:19:16.681Z,99602.93
2017-11-23T16:21:44.338Z,99605.52
2017-11-23T16:24:11.827Z,99607.33
2017-11-23T16:26:39.449Z,99614.55
2017-11-23T16:29:06.985Z,99622.39
2017-11-23T16:31:34.449Z,99621.83
2017-11-23T16:34:02.118Z,99628.03
2017-11-23T16:36:29.991Z,99638.22
2017-11-23T16:38:59.397Z,99641.60
2017-11-23T16:44:53.845Z,99654.53
2017-11-23T16:47:27.939Z,99654.94
2017-11-23T16:50:03.044Z,99658.76
2017-11-23T16:52:36.048Z,99666.77
2017-11-23T16:58:13.267Z,99669.58
2017-11-23T17:00:43.517Z,99675.60
2017-11-23T17:03:16.664Z,99684.23
2017-11-23T17:05:52.826Z,99694.66
2017-11-23T17:08:21.190Z,99684.77
2017-11-23T17:10:54.230Z,99687.58
2017-11-23T17:13:28.319Z,99681.16
2017-11-23T17:16:06.424Z,99688.16
2017-11-23T17:18:39.887Z,99692.86
2017-11-23T17:21:07.467Z,99691.66
2017-11-23T17:23:34.964Z,99691.10
2017-11-23T17:26:02.520Z,99684.75
2017-11-23T17:28:30.121Z,99683.73
2017-11-23T17:30:57.927Z,99690.53
2017-11-23T17:33:25.552Z,99693.06
2017-11-23T17:35:53.194Z,99696.02
2017-11-23T17:38:20.775Z,99703.92
2017-11-23T17:40:48.333Z,99711.30
2017-11-23T17:43:15.896Z,99710.28
2017-11-23T17:45:43.483Z,99707.77
2017-11-23T17:48:11.009Z,99704.30
2017-11-23T17:50:39.395Z,99703.22
2017-11-23T17:53:06.924Z,99707.62
2017-11-23T17:55:34.454Z,99707.92
2017-11-23T17:58:02.653Z,99709.66
2017-11-23T18:00:31.052Z,99708.48
2017-11-23T18:02:58.725Z,99698.75
2017-11-23T18:05:26.174Z,99702.22
2017-11-23T18:07:54.233Z,99705.11
2017-11-23T18:10:21.887Z,99699.91
2017-11-23T18:12:49.373Z,99697.24
2017-11-23T18:15:16.890Z,99704.52
2017-11-23T18:17:44.432Z,99717.33
2017-11-23T18:20:12.200Z,99726.66
2017-11-23T18:25:46.518Z,99725.08
2017-11-23T18:28:14.223Z,99722.72
2017-11-23T18:30:41.951Z,99725.67
2017-11-23T18:33:09.436Z,99723.28
2017-11-23T18:35:37.062Z,99723.84
2017-11-23T18:38:04.613Z,99715.85
2017-11-23T18:40:32.077Z,99718.52
2017-11-23T18:43:04.569Z,99721.49
2017-11-23T18:45:32.045Z,99721.95
2017-11-23T18:47:59.482Z,99729.70
2017-11-23T18:50:27.448Z,99726.23
2017-11-23T18:52:54.903Z,99724.53
2017-11-23T18:55:22.359Z,99726.80
2017-11-23T18:57:49.921Z,99725.38
2017-11-23T19:00:17.498Z,99718.46
2017-11-23T19:02:45.013Z,99713.29
2017-11-23T19:05:12.617Z,99724.66
2017-11-23T19:07:40.113Z,99725.34
2017-11-23T19:10:07.582Z,99724.26
2017-11-23T19:12:35.077Z,99721.34
2017-11-23T19:15:02.550Z,99718.06
2017-11-23T19:17:30.020Z,99718.55
2017-11-23T19:19:57.503Z,99719.58
2017-11-23T19:22:25.015Z,99718.98
2017-11-23T19:24:52.522Z,99722.85
2017-11-23T19:27:20.418Z,99727.98
2017-11-23T19:29:47.890Z,99727.67
2017-11-23T19:32:15.486Z,99732.60
2017-11-23T19:34:42.969Z,99730.89
2017-11-23T19:37:10.494Z,99737.19
2017-11-23T19:39:37.959Z,99730.92
2017-11-23T19:42:05.436Z,99736.27
2017-11-23T19:44:33.004Z,99743.03
2017-11-23T19:47:00.594Z,99737.07
2017-11-23T19:49:28.055Z,99728.55
2017-11-23T19:51:55.601Z,99730.41
2017-11-23T19:54:23.851Z,99730.31
2017-11-23T19:56:51.717Z,99742.63
2017-11-23T19:59:19.168Z,99744.30
2017-11-23T20:01:46.713Z,99735.20
2017-11-23T20:04:14.397Z,99740.45
2017-11-23T20:06:41.890Z,99744.52
2017-11-23T20:09:09.509Z,99740.98
2017-11-23T20:11:37.056Z,99740.70
2017-11-23T20:14:04.550Z,99743.05
2017-11-23T20:16:32.088Z,99750.58
2017-11-23T20:18:59.578Z,99754.18
2017-11-23T20:21:27.079Z,99751.42
2017-11-23T20:23:54.574Z,99756.20
2017-11-23T20:26:22.057Z,99758.40
2017-11-23T20:28:49.552Z,99758.64
2017-11-23T20:31:17.104Z,99755.45
2017-11-23T20:33:44.671Z,99764.41
2017-11-23T20:36:12.213Z,99767.30
2017-11-23T20:38:39.685Z,99765.74
2017-11-23T20:41:07.439Z,99763.45
2017-11-23T20:43:35.025Z,99759.98
2017-11-23T20:46:02.707Z,99764.70
2017-11-23T20:48:30.236Z,99766.00
2017-11-23T20:50:57.850Z,99765.37
2017-11-23T20:53:25.464Z,99768.36
2017-11-23T20:55:53.800Z,99777.38
2017-11-23T20:58:21.404Z,99778.64
2017-11-23T21:00:49.050Z,99778.33
2017-11-23T21:03:16.615Z,99771.02
2017-11-23T21:05:44.310Z,99773.96
2017-11-23T21:08:11.779Z,99777.53
2017-11-23T21:10:39.496Z,99781.45
2017-11-23T21:13:07.258Z,99775.09
2017-11-23T21:15:34.751Z,99796.02
2017-11-23T21:18:02.485Z,99784.33
2017-11-23T21:20:29.994Z,99783.16
2017-11-23T21:22:57.604Z,99786.59
2017-11-23T21:25:25.076Z,99788.08
2017-11-23T21:27:52.552Z,99794.97
2017-11-23T21:30:20.162Z,99795.59
2017-11-23T21:32:47.776Z,99798.47
2017-11-23T21:35:15.928Z,99801.41
2017-11-23T21:37:44.039Z,99809.63
2017-11-23T21:40:11.722Z,99813.50
2017-11-23T21:42:39.271Z,99821.41
2017-11-23T21:45:06.801Z,99816.66
2017-11-23T21:47:34.584Z,99817.22
2017-11-23T21:50:02.191Z,99819.55
2017-11-23T21:52:29.685Z,99835.19
2017-11-23T21:54:57.148Z,99829.49
2017-11-23T21:57:24.762Z,99831.13
2017-11-23T21:59:52.911Z,99831.59
2017-11-23T22:02:20.442Z,99833.64
2017-11-23T22:04:48.014Z,99834.77
2017-11-23T22:07:15.781Z,99831.14
2017-11-23T22:09:43.681Z,99829.24
2017-11-23T22:12:11.240Z,99830.33
2017-11-23T22:14:38.728Z,99829.55
2017-11-23T22:17:06.210Z,99839.81
2017-11-23T22:19:33.765Z,99838.22
2017-11-23T22:24:55.453Z,99841.97
2017-11-23T22:27:23.053Z,99846.93
2017-11-23T22:29:50.567Z,99848.42
2017-11-23T22:32:18.020Z,99854.46
2017-11-23T22:34:45.615Z,99850.41
2017-11-23T22:37:13.130Z,99853.79
2017-11-23T22:39:40.663Z,99853.30
2017-11-23T22:42:13.081Z,99851.19
2017-11-23T22:44:40.654Z,99846.67
2017-11-23T22:47:08.112Z,99842.61
2017-11-23T22:49:35.577Z,99846.02
2017-11-23T22:52:03.080Z,99854.73
2017-11-23T22:54:30.614Z,99852.01
2017-11-23T22:56:58.124Z,99851.57
2017-11-23T22:59:25.651Z,99846.45
2017-11-23T23:01:53.157Z,99851.02
2017-11-23T23:04:20.679Z,99845.77
2017-11-23T23:06:48.131Z,99856.81
2017-11-23T23:09:15.725Z,99865.09
2017-11-23T23:11:43.228Z,99858.58
2017-11-23T23:14:10.799Z,99855.33
2017-11-23T23:16:38.470Z,99867.91
2017-11-23T23:19:06.030Z,99864.16
2017-11-23T23:21:33.510Z,99865.59
2017-11-23T23:24:00.976Z,99861.44
2017-11-23T23:26:28.505Z,99863.51
2017-11-23T23:28:55.955Z,99861.68
2017-11-23T23:31:23.521Z,99865.52
2017-11-23T23:33:51.034Z,99863.36
2017-11-23T23:36:18.521Z,99865.16
2017-11-23T23:38:46.105Z,99859.63
2017-11-23T23:41:13.569Z,99859.57
2017-11-23T23:43:41.087Z,99862.30
2017-11-23T23:46:08.648Z,99865.59
2017-11-23T23:48:36.128Z,99861.34
2017-11-23T23:51:03.724Z,99860.41
2017-11-23T23:53:31.174Z,99849.09
2017-11-23T23:55:58.612Z,99846.05
2017-11-23T23:58:26.445Z,99839.63
